sensor_id;sensor_type;location;lat;lon;timestamp;P1;durP1;ratioP1;P2;durP2;ratioP2
73015;SDS011;61893;50.074;14.440;2023-04-19T00:00:06;28.60;;;17.85;;
73015;SDS011;61893;50.074;14.440;2023-04-19T00:02:55;28.40;;;17.05;;
73015;SDS011;61893;50.074;14.440;2023-04-19T00:06:11;30.05;;;17.50;;
73015;SDS011;61893;50.074;14.440;2023-04-19T00:09:51;29.15;;;17.10;;
73015;SDS011;61893;50.074;14.440;2023-04-19T00:12:57;32.50;;;18.27;;
73015;SDS011;61893;50.074;14.440;2023-04-19T00:15:28;33.75;;;18.45;;
73015;SDS011;61893;50.074;14.440;2023-04-19T00:17:54;30.23;;;17.55;;
73015;SDS011;61893;50.074;14.440;2023-04-19T00:20:21;30.33;;;18.08;;
73015;SDS011;61893;50.074;14.440;2023-04-19T00:22:49;30.27;;;18.05;;
73015;SDS011;61893;50.074;14.440;2023-04-19T00:25:15;30.70;;;16.42;;
73015;SDS011;61893;50.074;14.440;2023-04-19T00:27:53;30.70;;;17.27;;
73015;SDS011;61893;50.074;14.440;2023-04-19T00:30:59;31.63;;;17.38;;
73015;SDS011;61893;50.074;14.440;2023-04-19T00:33:27;28.17;;;16.35;;
73015;SDS011;61893;50.074;14.440;2023-04-19T00:36:33;29.02;;;17.13;;
73015;SDS011;61893;50.074;14.440;2023-04-19T00:39:15;29.77;;;17.38;;
73015;SDS011;61893;50.074;14.440;2023-04-19T00:41:53;31.63;;;17.65;;
73015;SDS011;61893;50.074;14.440;2023-04-19T00:45:11;27.73;;;16.60;;
73015;SDS011;61893;50.074;14.440;2023-04-19T00:47:37;29.85;;;17.70;;
73015;SDS011;61893;50.074;14.440;2023-04-19T00:50:03;29.23;;;16.42;;
73015;SDS011;61893;50.074;14.440;2023-04-19T00:52:42;28.90;;;16.90;;
73015;SDS011;61893;50.074;14.440;2023-04-19T00:55:08;29.45;;;17.05;;
73015;SDS011;61893;50.074;14.440;2023-04-19T00:57:35;30.30;;;17.00;;
73015;SDS011;61893;50.074;14.440;2023-04-19T01:00:12;30.27;;;17.25;;
73015;SDS011;61893;50.074;14.440;2023-04-19T01:02:44;31.23;;;16.98;;
73015;SDS011;61893;50.074;14.440;2023-04-19T01:05:19;29.52;;;16.40;;
73015;SDS011;61893;50.074;14.440;2023-04-19T01:07:50;30.05;;;17.13;;
73015;SDS011;61893;50.074;14.440;2023-04-19T01:10:22;31.20;;;18.33;;
73015;SDS011;61893;50.074;14.440;2023-04-19T01:12:48;29.27;;;17.83;;
73015;SDS011;61893;50.074;14.440;2023-04-19T01:15:14;26.65;;;16.75;;
73015;SDS011;61893;50.074;14.440;2023-04-19T01:17:39;33.10;;;17.17;;
73015;SDS011;61893;50.074;14.440;2023-04-19T01:20:31;28.85;;;16.70;;
73015;SDS011;61893;50.074;14.440;2023-04-19T01:22:56;27.77;;;15.68;;
73015;SDS011;61893;50.074;14.440;2023-04-19T01:25:37;31.17;;;17.30;;
73015;SDS011;61893;50.074;14.440;2023-04-19T01:28:06;26.80;;;15.82;;
73015;SDS011;61893;50.074;14.440;2023-04-19T01:30:48;27.67;;;16.90;;
73015;SDS011;61893;50.074;14.440;2023-04-19T01:33:18;28.08;;;16.33;;
73015;SDS011;61893;50.074;14.440;2023-04-19T01:36:01;30.13;;;17.33;;
73015;SDS011;61893;50.074;14.440;2023-04-19T01:38:57;26.60;;;15.43;;
73015;SDS011;61893;50.074;14.440;2023-04-19T01:41:40;25.63;;;15.77;;
73015;SDS011;61893;50.074;14.440;2023-04-19T01:44:06;25.67;;;15.77;;
73015;SDS011;61893;50.074;14.440;2023-04-19T01:46:32;24.77;;;15.45;;
73015;SDS011;61893;50.074;14.440;2023-04-19T01:48:58;25.30;;;15.55;;
73015;SDS011;61893;50.074;14.440;2023-04-19T01:51:23;29.33;;;16.58;;
73015;SDS011;61893;50.074;14.440;2023-04-19T01:53:50;27.42;;;16.35;;
73015;SDS011;61893;50.074;14.440;2023-04-19T01:56:18;26.52;;;15.23;;
73015;SDS011;61893;50.074;14.440;2023-04-19T01:58:47;28.00;;;14.98;;
73015;SDS011;61893;50.074;14.440;2023-04-19T02:01:13;26.58;;;15.75;;
73015;SDS011;61893;50.074;14.440;2023-04-19T02:03:44;25.52;;;14.75;;
73015;SDS011;61893;50.074;14.440;2023-04-19T02:06:12;25.27;;;15.13;;
73015;SDS011;61893;50.074;14.440;2023-04-19T02:08:52;27.85;;;16.40;;
73015;SDS011;61893;50.074;14.440;2023-04-19T02:14:03;29.15;;;16.02;;
73015;SDS011;61893;50.074;14.440;2023-04-19T02:16:29;25.25;;;15.93;;
73015;SDS011;61893;50.074;14.440;2023-04-19T02:18:55;25.88;;;15.52;;
73015;SDS011;61893;50.074;14.440;2023-04-19T02:21:21;26.50;;;15.20;;
73015;SDS011;61893;50.074;14.440;2023-04-19T02:23:46;25.52;;;15.77;;
73015;SDS011;61893;50.074;14.440;2023-04-19T02:26:13;28.23;;;16.25;;
73015;SDS011;61893;50.074;14.440;2023-04-19T02:28:39;25.75;;;15.10;;
73015;SDS011;61893;50.074;14.440;2023-04-19T02:31:08;25.33;;;16.13;;
73015;SDS011;61893;50.074;14.440;2023-04-19T02:33:34;29.58;;;17.17;;
73015;SDS011;61893;50.074;14.440;2023-04-19T02:36:02;28.58;;;17.27;;
73015;SDS011;61893;50.074;14.440;2023-04-19T02:43:50;25.77;;;16.30;;
73015;SDS011;61893;50.074;14.440;2023-04-19T02:46:16;26.60;;;16.60;;
73015;SDS011;61893;50.074;14.440;2023-04-19T02:48:42;27.73;;;17.13;;
73015;SDS011;61893;50.074;14.440;2023-04-19T02:51:13;29.40;;;17.08;;
73015;SDS011;61893;50.074;14.440;2023-04-19T02:53:39;28.92;;;17.45;;
73015;SDS011;61893;50.074;14.440;2023-04-19T02:56:06;29.95;;;17.27;;
73015;SDS011;61893;50.074;14.440;2023-04-19T02:58:32;27.38;;;16.83;;
73015;SDS011;61893;50.074;14.440;2023-04-19T03:00:58;29.50;;;17.70;;
73015;SDS011;61893;50.074;14.440;2023-04-19T03:03:26;32.70;;;18.93;;
73015;SDS011;61893;50.074;14.440;2023-04-19T03:05:53;29.23;;;16.98;;
73015;SDS011;61893;50.074;14.440;2023-04-19T03:08:19;28.80;;;17.00;;
73015;SDS011;61893;50.074;14.440;2023-04-19T03:10:45;31.70;;;17.70;;
73015;SDS011;61893;50.074;14.440;2023-04-19T03:13:13;28.88;;;16.67;;
73015;SDS011;61893;50.074;14.440;2023-04-19T03:15:39;29.83;;;17.65;;
73015;SDS011;61893;50.074;14.440;2023-04-19T03:18:05;31.35;;;17.88;;
73015;SDS011;61893;50.074;14.440;2023-04-19T03:20:32;30.40;;;17.80;;
73015;SDS011;61893;50.074;14.440;2023-04-19T03:22:58;32.05;;;18.40;;
73015;SDS011;61893;50.074;14.440;2023-04-19T03:25:24;31.52;;;18.83;;
73015;SDS011;61893;50.074;14.440;2023-04-19T03:27:50;27.77;;;17.00;;
73015;SDS011;61893;50.074;14.440;2023-04-19T03:30:16;29.20;;;17.05;;
73015;SDS011;61893;50.074;14.440;2023-04-19T03:32:42;26.98;;;16.80;;
73015;SDS011;61893;50.074;14.440;2023-04-19T03:35:09;30.63;;;17.88;;
73015;SDS011;61893;50.074;14.440;2023-04-19T03:37:35;32.15;;;17.77;;
73015;SDS011;61893;50.074;14.440;2023-04-19T03:40:01;30.38;;;16.45;;
73015;SDS011;61893;50.074;14.440;2023-04-19T03:42:26;28.97;;;17.13;;
73015;SDS011;61893;50.074;14.440;2023-04-19T03:44:52;29.23;;;18.58;;
73015;SDS011;61893;50.074;14.440;2023-04-19T03:47:18;29.90;;;17.98;;
73015;SDS011;61893;50.074;14.440;2023-04-19T03:49:46;30.20;;;18.38;;
73015;SDS011;61893;50.074;14.440;2023-04-19T03:52:12;29.40;;;18.48;;
73015;SDS011;61893;50.074;14.440;2023-04-19T03:54:38;29.73;;;17.95;;
73015;SDS011;61893;50.074;14.440;2023-04-19T03:57:05;27.92;;;16.85;;
73015;SDS011;61893;50.074;14.440;2023-04-19T03:59:31;28.27;;;17.58;;
73015;SDS011;61893;50.074;14.440;2023-04-19T04:01:57;31.02;;;18.30;;
73015;SDS011;61893;50.074;14.440;2023-04-19T04:04:23;31.08;;;16.65;;
73015;SDS011;61893;50.074;14.440;2023-04-19T04:06:49;29.85;;;17.05;;
73015;SDS011;61893;50.074;14.440;2023-04-19T04:09:15;29.48;;;17.80;;
73015;SDS011;61893;50.074;14.440;2023-04-19T04:11:40;29.77;;;17.33;;
73015;SDS011;61893;50.074;14.440;2023-04-19T04:14:06;28.33;;;17.13;;
73015;SDS011;61893;50.074;14.440;2023-04-19T04:16:32;30.92;;;16.90;;
73015;SDS011;61893;50.074;14.440;2023-04-19T04:18:58;32.00;;;17.27;;
73015;SDS011;61893;50.074;14.440;2023-04-19T04:21:24;27.40;;;16.35;;
73015;SDS011;61893;50.074;14.440;2023-04-19T04:23:51;25.25;;;16.17;;
73015;SDS011;61893;50.074;14.440;2023-04-19T04:26:23;25.52;;;16.08;;
73015;SDS011;61893;50.074;14.440;2023-04-19T04:28:50;25.70;;;15.18;;
73015;SDS011;61893;50.074;14.440;2023-04-19T04:31:16;24.30;;;15.05;;
73015;SDS011;61893;50.074;14.440;2023-04-19T04:34:00;27.13;;;16.75;;
73015;SDS011;61893;50.074;14.440;2023-04-19T04:36:28;28.13;;;16.35;;
73015;SDS011;61893;50.074;14.440;2023-04-19T04:38:58;23.95;;;15.65;;
73015;SDS011;61893;50.074;14.440;2023-04-19T04:41:40;24.23;;;14.27;;
73015;SDS011;61893;50.074;14.440;2023-04-19T04:44:08;27.15;;;16.60;;
73015;SDS011;61893;50.074;14.440;2023-04-19T04:49:16;24.67;;;14.52;;
73015;SDS011;61893;50.074;14.440;2023-04-19T04:52:02;24.33;;;14.10;;
73015;SDS011;61893;50.074;14.440;2023-04-19T04:57:22;26.63;;;14.60;;
73015;SDS011;61893;50.074;14.440;2023-04-19T05:00:02;23.27;;;14.05;;
73015;SDS011;61893;50.074;14.440;2023-04-19T05:02:39;24.70;;;14.85;;
73015;SDS011;61893;50.074;14.440;2023-04-19T05:05:05;24.50;;;14.82;;
73015;SDS011;61893;50.074;14.440;2023-04-19T05:07:37;24.02;;;14.65;;
73015;SDS011;61893;50.074;14.440;2023-04-19T05:10:22;23.15;;;14.02;;
73015;SDS011;61893;50.074;14.440;2023-04-19T05:13:11;22.98;;;13.90;;
73015;SDS011;61893;50.074;14.440;2023-04-19T05:15:40;23.73;;;14.27;;
73015;SDS011;61893;50.074;14.440;2023-04-19T05:18:08;24.83;;;14.75;;
73015;SDS011;61893;50.074;14.440;2023-04-19T05:21:07;22.90;;;14.00;;
73015;SDS011;61893;50.074;14.440;2023-04-19T05:24:15;22.73;;;13.18;;
73015;SDS011;61893;50.074;14.440;2023-04-19T05:27:29;21.58;;;12.60;;
73015;SDS011;61893;50.074;14.440;2023-04-19T05:29:55;22.10;;;13.38;;
73015;SDS011;61893;50.074;14.440;2023-04-19T05:32:38;24.42;;;13.30;;
73015;SDS011;61893;50.074;14.440;2023-04-19T05:35:19;22.23;;;12.90;;
73015;SDS011;61893;50.074;14.440;2023-04-19T05:38:37;24.80;;;13.65;;
73015;SDS011;61893;50.074;14.440;2023-04-19T05:41:06;21.90;;;12.80;;
73015;SDS011;61893;50.074;14.440;2023-04-19T05:43:32;23.55;;;12.43;;
73015;SDS011;61893;50.074;14.440;2023-04-19T05:46:13;20.75;;;12.45;;
73015;SDS011;61893;50.074;14.440;2023-04-19T05:49:03;19.35;;;11.90;;
73015;SDS011;61893;50.074;14.440;2023-04-19T06:09:24;17.77;;;11.43;;
73015;SDS011;61893;50.074;14.440;2023-04-19T06:35:57;24.73;;;12.32;;
73015;SDS011;61893;50.074;14.440;2023-04-19T06:41:19;21.37;;;13.00;;
73015;SDS011;61893;50.074;14.440;2023-04-19T07:08:46;15.75;;;9.77;;
73015;SDS011;61893;50.074;14.440;2023-04-19T08:02:17;13.77;;;7.75;;
73015;SDS011;61893;50.074;14.440;2023-04-19T08:08:37;11.40;;;8.18;;
73015;SDS011;61893;50.074;14.440;2023-04-19T08:17:41;10.35;;;7.03;;
73015;SDS011;61893;50.074;14.440;2023-04-19T08:38:40;8.60;;;4.68;;
73015;SDS011;61893;50.074;14.440;2023-04-19T08:41:27;6.78;;;4.63;;
73015;SDS011;61893;50.074;14.440;2023-04-19T09:01:41;12.98;;;4.10;;
73015;SDS011;61893;50.074;14.440;2023-04-19T09:04:07;13.00;;;4.07;;
73015;SDS011;61893;50.074;14.440;2023-04-19T09:06:36;16.23;;;4.32;;
73015;SDS011;61893;50.074;14.440;2023-04-19T09:09:13;12.13;;;3.63;;
73015;SDS011;61893;50.074;14.440;2023-04-19T09:11:49;4.93;;;2.90;;
73015;SDS011;61893;50.074;14.440;2023-04-19T09:14:19;8.48;;;3.20;;
73015;SDS011;61893;50.074;14.440;2023-04-19T09:56:12;4.75;;;2.30;;
73015;SDS011;61893;50.074;14.440;2023-04-19T09:58:38;12.95;;;3.28;;
73015;SDS011;61893;50.074;14.440;2023-04-19T10:01:03;13.07;;;3.03;;
73015;SDS011;61893;50.074;14.440;2023-04-19T10:03:30;7.28;;;2.50;;
73015;SDS011;61893;50.074;14.440;2023-04-19T10:05:56;6.40;;;2.83;;
73015;SDS011;61893;50.074;14.440;2023-04-19T10:08:23;5.50;;;2.60;;
73015;SDS011;61893;50.074;14.440;2023-04-19T10:10:52;6.10;;;2.35;;
73015;SDS011;61893;50.074;14.440;2023-04-19T10:13:19;3.38;;;2.47;;
73015;SDS011;61893;50.074;14.440;2023-04-19T11:04:05;3.42;;;2.25;;
73015;SDS011;61893;50.074;14.440;2023-04-19T13:26:26;3.17;;;2.08;;
73015;SDS011;61893;50.074;14.440;2023-04-19T14:15:31;3.38;;;2.10;;
73015;SDS011;61893;50.074;14.440;2023-04-19T14:18:24;3.45;;;1.88;;
73015;SDS011;61893;50.074;14.440;2023-04-19T14:30:18;3.97;;;2.05;;
73015;SDS011;61893;50.074;14.440;2023-04-19T14:45:12;3.75;;;2.35;;
73015;SDS011;61893;50.074;14.440;2023-04-19T16:40:51;5.85;;;3.25;;
73015;SDS011;61893;50.074;14.440;2023-04-19T17:36:42;5.40;;;2.80;;
73015;SDS011;61893;50.074;14.440;2023-04-19T17:39:29;3.30;;;2.27;;
73015;SDS011;61893;50.074;14.440;2023-04-19T17:48:22;4.53;;;2.53;;
73015;SDS011;61893;50.074;14.440;2023-04-19T17:51:42;2.70;;;1.83;;
73015;SDS011;61893;50.074;14.440;2023-04-19T18:03:55;4.47;;;2.90;;
73015;SDS011;61893;50.074;14.440;2023-04-19T18:21:57;5.07;;;2.97;;
73015;SDS011;61893;50.074;14.440;2023-04-19T18:35:08;4.87;;;2.87;;
73015;SDS011;61893;50.074;14.440;2023-04-19T18:58:18;5.70;;;3.23;;
73015;SDS011;61893;50.074;14.440;2023-04-19T19:19:10;7.63;;;4.20;;
73015;SDS011;61893;50.074;14.440;2023-04-19T19:31:02;9.63;;;5.17;;
73015;SDS011;61893;50.074;14.440;2023-04-19T20:00:30;8.33;;;4.97;;
73015;SDS011;61893;50.074;14.440;2023-04-19T20:21:36;9.40;;;4.90;;
73015;SDS011;61893;50.074;14.440;2023-04-19T20:39:21;8.47;;;5.00;;
73015;SDS011;61893;50.074;14.440;2023-04-19T20:45:13;6.90;;;4.57;;
73015;SDS011;61893;50.074;14.440;2023-04-19T20:57:01;8.60;;;4.90;;
73015;SDS011;61893;50.074;14.440;2023-04-19T21:05:36;7.97;;;4.90;;
73015;SDS011;61893;50.074;14.440;2023-04-19T21:11:18;8.87;;;5.00;;
73015;SDS011;61893;50.074;14.440;2023-04-19T21:16:31;9.53;;;5.27;;
73015;SDS011;61893;50.074;14.440;2023-04-19T21:22:09;8.20;;;5.57;;
73015;SDS011;61893;50.074;14.440;2023-04-19T21:39:40;7.10;;;4.60;;
73015;SDS011;61893;50.074;14.440;2023-04-19T21:48:24;8.25;;;5.15;;
73015;SDS011;61893;50.074;14.440;2023-04-19T21:50:56;8.00;;;4.70;;
73015;SDS011;61893;50.074;14.440;2023-04-19T21:53:36;7.90;;;4.70;;
73015;SDS011;61893;50.074;14.440;2023-04-19T22:02:03;7.60;;;5.27;;
73015;SDS011;61893;50.074;14.440;2023-04-19T22:04:38;8.83;;;5.10;;
73015;SDS011;61893;50.074;14.440;2023-04-19T22:07:43;9.30;;;6.03;;
73015;SDS011;61893;50.074;14.440;2023-04-19T22:16:42;8.03;;;5.00;;
73015;SDS011;61893;50.074;14.440;2023-04-19T22:19:33;8.37;;;5.23;;
73015;SDS011;61893;50.074;14.440;2023-04-19T22:22:26;9.77;;;5.53;;
73015;SDS011;61893;50.074;14.440;2023-04-19T22:25:12;7.10;;;4.70;;
73015;SDS011;61893;50.074;14.440;2023-04-19T22:37:36;9.33;;;4.93;;
73015;SDS011;61893;50.074;14.440;2023-04-19T22:40:07;7.23;;;4.73;;
73015;SDS011;61893;50.074;14.440;2023-04-19T22:49:12;7.33;;;4.43;;
73015;SDS011;61893;50.074;14.440;2023-04-19T22:51:57;7.10;;;4.40;;
73015;SDS011;61893;50.074;14.440;2023-04-19T23:03:44;7.33;;;4.40;;
73015;SDS011;61893;50.074;14.440;2023-04-19T23:09:36;6.77;;;4.67;;
73015;SDS011;61893;50.074;14.440;2023-04-19T23:12:06;8.37;;;5.03;;
73015;SDS011;61893;50.074;14.440;2023-04-19T23:14:55;7.50;;;4.60;;
73015;SDS011;61893;50.074;14.440;2023-04-19T23:20:47;8.03;;;4.93;;
73015;SDS011;61893;50.074;14.440;2023-04-19T23:23:36;6.93;;;4.70;;
73015;SDS011;61893;50.074;14.440;2023-04-19T23:26:17;7.10;;;4.97;;
73015;SDS011;61893;50.074;14.440;2023-04-19T23:29:03;6.00;;;4.60;;
73015;SDS011;61893;50.074;14.440;2023-04-19T23:32:01;6.83;;;4.83;;
73015;SDS011;61893;50.074;14.440;2023-04-19T23:34:36;8.40;;;5.20;;
73015;SDS011;61893;50.074;14.440;2023-04-19T23:37:02;7.87;;;5.43;;
73015;SDS011;61893;50.074;14.440;2023-04-19T23:39:28;8.80;;;5.30;;
73015;SDS011;61893;50.074;14.440;2023-04-19T23:42:09;7.20;;;4.77;;
73015;SDS011;61893;50.074;14.440;2023-04-19T23:44:36;7.70;;;4.83;;
73015;SDS011;61893;50.074;14.440;2023-04-19T23:47:18;8.87;;;5.33;;
73015;SDS011;61893;50.074;14.440;2023-04-19T23:49:56;9.33;;;5.33;;
73015;SDS011;61893;50.074;14.440;2023-04-19T23:55:13;8.27;;;5.20;;
73015;SDS011;61893;50.074;14.440;2023-04-19T23:57:39;8.13;;;5.47;;
